sensor_id;sensor_type;location;lat;lon;timestamp;pressure;altitude;pressure_sealevel;temperature;humidity
20043;BME280;10182;52.896;6.496;2023-02-28T00:04:41;103103.84;;;2.47;100.00
20043;BME280;10182;52.896;6.496;2023-02-28T00:09:45;103097.03;;;2.53;100.00
20043;BME280;10182;52.896;6.496;2023-02-28T00:14:56;103096.75;;;2.43;100.00
20043;BME280;10182;52.896;6.496;2023-02-28T00:19:59;103098.50;;;2.42;100.00
20043;BME280;10182;52.896;6.496;2023-02-28T00:25:11;103096.72;;;2.41;100.00
20043;BME280;10182;52.896;6.496;2023-02-28T00:30:16;103087.06;;;2.39;100.00
20043;BME280;10182;52.896;6.496;2023-02-28T00:35:19;103096.66;;;2.38;100.00
20043;BME280;10182;52.896;6.496;2023-02-28T00:40:22;103088.03;;;2.42;100.00
20043;BME280;10182;52.896;6.496;2023-02-28T00:45:23;103075.94;;;2.47;100.00
20043;BME280;10182;52.896;6.496;2023-02-28T00:50:27;103074.31;;;2.52;100.00
20043;BME280;10182;52.896;6.496;2023-02-28T00:55:28;103072.66;;;2.56;100.00
20043;BME280;10182;52.896;6.496;2023-02-28T01:00:33;103075.41;;;2.62;100.00
20043;BME280;10182;52.896;6.496;2023-02-28T01:05:36;103084.94;;;2.59;100.00
20043;BME280;10182;52.896;6.496;2023-02-28T01:10:39;103086.69;;;2.60;100.00
20043;BME280;10182;52.896;6.496;2023-02-28T01:15:46;103076.22;;;2.60;100.00
20043;BME280;10182;52.896;6.496;2023-02-28T01:20:51;103077.13;;;2.60;100.00
20043;BME280;10182;52.896;6.496;2023-02-28T01:25:53;103074.53;;;2.62;100.00
20043;BME280;10182;52.896;6.496;2023-02-28T01:30:55;103070.25;;;2.64;100.00
20043;BME280;10182;52.896;6.496;2023-02-28T01:35:59;103073.72;;;2.64;100.00
20043;BME280;10182;52.896;6.496;2023-02-28T01:41:02;103073.69;;;2.61;100.00
20043;BME280;10182;52.896;6.496;2023-02-28T01:46:03;103074.50;;;2.60;100.00
20043;BME280;10182;52.896;6.496;2023-02-28T01:51:11;103070.97;;;2.58;100.00
20043;BME280;10182;52.896;6.496;2023-02-28T01:56:17;103070.91;;;2.55;100.00
20043;BME280;10182;52.896;6.496;2023-02-28T02:01:26;103065.75;;;2.60;100.00
20043;BME280;10182;52.896;6.496;2023-02-28T02:06:34;103067.72;;;2.68;100.00
20043;BME280;10182;52.896;6.496;2023-02-28T02:11:36;103070.19;;;2.62;100.00
20043;BME280;10182;52.896;6.496;2023-02-28T02:16:46;103064.03;;;2.60;100.00
20043;BME280;10182;52.896;6.496;2023-02-28T02:22:23;103065.88;;;2.64;100.00
20043;BME280;10182;52.896;6.496;2023-02-28T02:27:55;103066.72;;;2.63;100.00
20043;BME280;10182;52.896;6.496;2023-02-28T02:33:14;103060.63;;;2.63;100.00
20043;BME280;10182;52.896;6.496;2023-02-28T02:38:27;103049.41;;;2.68;100.00
20043;BME280;10182;52.896;6.496;2023-02-28T02:43:39;103056.31;;;2.66;100.00
20043;BME280;10182;52.896;6.496;2023-02-28T02:48:45;103047.41;;;2.58;100.00
20043;BME280;10182;52.896;6.496;2023-02-28T02:53:52;103060.53;;;2.60;100.00
20043;BME280;10182;52.896;6.496;2023-02-28T02:59:01;103059.41;;;2.48;100.00
20043;BME280;10182;52.896;6.496;2023-02-28T03:04:07;103055.00;;;2.47;100.00
20043;BME280;10182;52.896;6.496;2023-02-28T03:09:11;103049.72;;;2.46;100.00
20043;BME280;10182;52.896;6.496;2023-02-28T03:14:26;103053.94;;;2.39;100.00
20043;BME280;10182;52.896;6.496;2023-02-28T03:19:45;103054.63;;;2.32;100.00
20043;BME280;10182;52.896;6.496;2023-02-28T03:24:57;103053.59;;;2.25;100.00
20043;BME280;10182;52.896;6.496;2023-02-28T03:30:05;103055.44;;;2.29;100.00
20043;BME280;10182;52.896;6.496;2023-02-28T03:35:16;103060.53;;;2.23;100.00
20043;BME280;10182;52.896;6.496;2023-02-28T03:40:30;103051.81;;;2.24;100.00
20043;BME280;10182;52.896;6.496;2023-02-28T03:45:37;103048.31;;;2.22;100.00
20043;BME280;10182;52.896;6.496;2023-02-28T03:50:42;103058.00;;;2.26;100.00
20043;BME280;10182;52.896;6.496;2023-02-28T03:55:53;103063.19;;;2.25;100.00
20043;BME280;10182;52.896;6.496;2023-02-28T04:01:03;103063.00;;;2.17;100.00
20043;BME280;10182;52.896;6.496;2023-02-28T04:06:14;103058.41;;;2.08;100.00
20043;BME280;10182;52.896;6.496;2023-02-28T04:11:22;103061.81;;;2.04;100.00
20043;BME280;10182;52.896;6.496;2023-02-28T04:16:25;103061.72;;;2.01;100.00
20043;BME280;10182;52.896;6.496;2023-02-28T04:21:27;103058.00;;;1.93;100.00
20043;BME280;10182;52.896;6.496;2023-02-28T04:26:31;103058.66;;;1.84;100.00
20043;BME280;10182;52.896;6.496;2023-02-28T04:31:35;103063.13;;;1.88;100.00
20043;BME280;10182;52.896;6.496;2023-02-28T04:36:37;103072.34;;;1.74;100.00
20043;BME280;10182;52.896;6.496;2023-02-28T04:41:41;103071.13;;;1.62;100.00
20043;BME280;10182;52.896;6.496;2023-02-28T04:46:43;103072.84;;;1.60;100.00
20043;BME280;10182;52.896;6.496;2023-02-28T04:51:45;103085.16;;;1.64;100.00
20043;BME280;10182;52.896;6.496;2023-02-28T04:56:48;103085.16;;;1.64;100.00
20043;BME280;10182;52.896;6.496;2023-02-28T05:01:50;103072.03;;;1.63;100.00
20043;BME280;10182;52.896;6.496;2023-02-28T05:06:52;103073.63;;;1.58;100.00
20043;BME280;10182;52.896;6.496;2023-02-28T05:11:55;103080.44;;;1.52;100.00
20043;BME280;10182;52.896;6.496;2023-02-28T05:16:58;103081.84;;;1.40;100.00
20043;BME280;10182;52.896;6.496;2023-02-28T05:22:00;103083.47;;;1.36;100.00
20043;BME280;10182;52.896;6.496;2023-02-28T05:27:07;103082.41;;;1.29;100.00
20043;BME280;10182;52.896;6.496;2023-02-28T05:32:09;103083.22;;;1.28;100.00
20043;BME280;10182;52.896;6.496;2023-02-28T05:37:12;103078.81;;;1.26;100.00
20043;BME280;10182;52.896;6.496;2023-02-28T05:42:17;103093.63;;;1.27;100.00
20043;BME280;10182;52.896;6.496;2023-02-28T05:47:19;103078.88;;;1.27;100.00
20043;BME280;10182;52.896;6.496;2023-02-28T05:52:25;103090.31;;;1.32;100.00
20043;BME280;10182;52.896;6.496;2023-02-28T05:57:29;103094.94;;;1.11;100.00
20043;BME280;10182;52.896;6.496;2023-02-28T06:02:31;103098.41;;;1.11;100.00
20043;BME280;10182;52.896;6.496;2023-02-28T06:07:33;103105.50;;;1.15;100.00
20043;BME280;10182;52.896;6.496;2023-02-28T06:12:36;103089.75;;;1.12;100.00
20043;BME280;10182;52.896;6.496;2023-02-28T06:17:39;103094.81;;;1.08;100.00
20043;BME280;10182;52.896;6.496;2023-02-28T06:22:41;103094.69;;;1.03;100.00
20043;BME280;10182;52.896;6.496;2023-02-28T06:27:44;103099.13;;;1.06;100.00
20043;BME280;10182;52.896;6.496;2023-02-28T06:32:46;103100.78;;;1.04;100.00
20043;BME280;10182;52.896;6.496;2023-02-28T06:37:49;103105.09;;;1.01;100.00
20043;BME280;10182;52.896;6.496;2023-02-28T06:42:52;103107.75;;;1.03;100.00
20043;BME280;10182;52.896;6.496;2023-02-28T06:47:55;103115.75;;;1.09;100.00
20043;BME280;10182;52.896;6.496;2023-02-28T06:52:56;103121.13;;;1.14;100.00
20043;BME280;10182;52.896;6.496;2023-02-28T06:58:00;103129.97;;;1.19;100.00
20043;BME280;10182;52.896;6.496;2023-02-28T07:03:03;103125.31;;;1.09;100.00
20043;BME280;10182;52.896;6.496;2023-02-28T07:08:09;103124.38;;;1.07;100.00
20043;BME280;10182;52.896;6.496;2023-02-28T07:13:12;103132.28;;;1.08;100.00
20043;BME280;10182;52.896;6.496;2023-02-28T07:18:14;103150.00;;;1.20;100.00
20043;BME280;10182;52.896;6.496;2023-02-28T07:23:17;103163.03;;;1.18;100.00
20043;BME280;10182;52.896;6.496;2023-02-28T07:28:20;103156.94;;;1.18;100.00
20043;BME280;10182;52.896;6.496;2023-02-28T07:33:23;103164.69;;;1.15;100.00
20043;BME280;10182;52.896;6.496;2023-02-28T07:38:25;103159.53;;;1.18;100.00
20043;BME280;10182;52.896;6.496;2023-02-28T07:43:28;103172.78;;;1.24;100.00
20043;BME280;10182;52.896;6.496;2023-02-28T07:48:31;103162.53;;;1.30;100.00
20043;BME280;10182;52.896;6.496;2023-02-28T07:53:33;103158.09;;;1.28;100.00
20043;BME280;10182;52.896;6.496;2023-02-28T07:58:37;103159.75;;;1.26;100.00
20043;BME280;10182;52.896;6.496;2023-02-28T08:03:39;103160.94;;;1.35;100.00
20043;BME280;10182;52.896;6.496;2023-02-28T08:08:42;103161.28;;;1.46;100.00
20043;BME280;10182;52.896;6.496;2023-02-28T08:13:46;103177.81;;;1.47;100.00
20043;BME280;10182;52.896;6.496;2023-02-28T08:18:48;103170.06;;;1.50;100.00
20043;BME280;10182;52.896;6.496;2023-02-28T08:23:51;103170.34;;;1.59;100.00
20043;BME280;10182;52.896;6.496;2023-02-28T08:28:54;103168.16;;;1.75;100.00
20043;BME280;10182;52.896;6.496;2023-02-28T08:33:56;103158.41;;;1.99;100.00
20043;BME280;10182;52.896;6.496;2023-02-28T08:38:59;103168.19;;;2.07;100.00
20043;BME280;10182;52.896;6.496;2023-02-28T08:44:03;103177.75;;;2.06;100.00
20043;BME280;10182;52.896;6.496;2023-02-28T08:49:05;103177.13;;;2.15;100.00
20043;BME280;10182;52.896;6.496;2023-02-28T08:54:08;103172.84;;;2.18;100.00
20043;BME280;10182;52.896;6.496;2023-02-28T08:59:14;103165.56;;;2.39;100.00
20043;BME280;10182;52.896;6.496;2023-02-28T09:04:16;103163.31;;;2.54;100.00
20043;BME280;10182;52.896;6.496;2023-02-28T09:09:18;103164.56;;;2.68;100.00
20043;BME280;10182;52.896;6.496;2023-02-28T09:14:21;103172.44;;;2.70;100.00
20043;BME280;10182;52.896;6.496;2023-02-28T09:19:24;103163.84;;;2.76;100.00
20043;BME280;10182;52.896;6.496;2023-02-28T09:24:26;103155.47;;;2.89;100.00
20043;BME280;10182;52.896;6.496;2023-02-28T09:29:29;103161.69;;;2.94;100.00
20043;BME280;10182;52.896;6.496;2023-02-28T09:34:33;103154.22;;;3.11;100.00
20043;BME280;10182;52.896;6.496;2023-02-28T09:39:39;103157.97;;;3.22;100.00
20043;BME280;10182;52.896;6.496;2023-02-28T09:44:45;103161.00;;;3.41;100.00
20043;BME280;10182;52.896;6.496;2023-02-28T09:49:49;103157.69;;;3.50;100.00
20043;BME280;10182;52.896;6.496;2023-02-28T09:54:52;103158.63;;;3.52;100.00
20043;BME280;10182;52.896;6.496;2023-02-28T10:00:05;103164.28;;;3.72;100.00
20043;BME280;10182;52.896;6.496;2023-02-28T10:05:13;103158.22;;;3.75;100.00
20043;BME280;10182;52.896;6.496;2023-02-28T10:10:22;103146.47;;;4.01;100.00
20043;BME280;10182;52.896;6.496;2023-02-28T10:15:30;103153.47;;;3.99;100.00
20043;BME280;10182;52.896;6.496;2023-02-28T10:20:37;103156.09;;;4.01;100.00
20043;BME280;10182;52.896;6.496;2023-02-28T10:25:43;103160.38;;;3.96;100.00
20043;BME280;10182;52.896;6.496;2023-02-28T10:30:53;103155.50;;;4.16;100.00
20043;BME280;10182;52.896;6.496;2023-02-28T10:35:58;103155.09;;;4.42;100.00
20043;BME280;10182;52.896;6.496;2023-02-28T10:41:04;103163.50;;;4.75;100.00
20043;BME280;10182;52.896;6.496;2023-02-28T10:46:13;103154.47;;;5.12;100.00
20043;BME280;10182;52.896;6.496;2023-02-28T10:51:34;103146.00;;;5.34;100.00
20043;BME280;10182;52.896;6.496;2023-02-28T10:56:36;103152.16;;;5.35;100.00
20043;BME280;10182;52.896;6.496;2023-02-28T11:01:41;103148.56;;;5.30;100.00
20043;BME280;10182;52.896;6.496;2023-02-28T11:06:43;103146.44;;;5.02;100.00
20043;BME280;10182;52.896;6.496;2023-02-28T11:11:47;103133.94;;;4.87;100.00
20043;BME280;10182;52.896;6.496;2023-02-28T11:16:52;103140.03;;;4.85;100.00
20043;BME280;10182;52.896;6.496;2023-02-28T11:21:57;103131.59;;;5.04;100.00
20043;BME280;10182;52.896;6.496;2023-02-28T11:27:01;103131.69;;;5.14;100.00
20043;BME280;10182;52.896;6.496;2023-02-28T11:32:16;103122.97;;;5.15;100.00
20043;BME280;10182;52.896;6.496;2023-02-28T11:37:20;103125.56;;;5.13;100.00
20043;BME280;10182;52.896;6.496;2023-02-28T11:42:35;103110.78;;;5.20;100.00
20043;BME280;10182;52.896;6.496;2023-02-28T11:47:47;103110.84;;;5.26;100.00
20043;BME280;10182;52.896;6.496;2023-02-28T11:52:53;103111.06;;;5.43;100.00
20043;BME280;10182;52.896;6.496;2023-02-28T11:58:26;103103.53;;;5.72;100.00
20043;BME280;10182;52.896;6.496;2023-02-28T12:03:43;103095.75;;;5.85;100.00
20043;BME280;10182;52.896;6.496;2023-02-28T12:09:02;103100.97;;;5.77;100.00
20043;BME280;10182;52.896;6.496;2023-02-28T12:19:50;103090.50;;;5.85;100.00
20043;BME280;10182;52.896;6.496;2023-02-28T12:25:24;103079.19;;;5.92;100.00
20043;BME280;10182;52.896;6.496;2023-02-28T12:30:34;103073.84;;;5.83;100.00
20043;BME280;10182;52.896;6.496;2023-02-28T12:35:49;103074.03;;;6.01;100.00
20043;BME280;10182;52.896;6.496;2023-02-28T12:40:56;103067.75;;;5.87;100.00
20043;BME280;10182;52.896;6.496;2023-02-28T12:46:01;103064.50;;;6.11;100.00
20043;BME280;10182;52.896;6.496;2023-02-28T12:51:07;103053.75;;;5.92;100.00
20043;BME280;10182;52.896;6.496;2023-02-28T12:56:14;103053.09;;;6.12;100.00
20043;BME280;10182;52.896;6.496;2023-02-28T13:01:36;103045.25;;;6.20;100.00
20043;BME280;10182;52.896;6.496;2023-02-28T13:07:00;103044.50;;;6.33;100.00
20043;BME280;10182;52.896;6.496;2023-02-28T13:12:13;103032.94;;;6.13;100.00
20043;BME280;10182;52.896;6.496;2023-02-28T13:17:19;103026.59;;;5.93;100.00
20043;BME280;10182;52.896;6.496;2023-02-28T13:22:37;103017.94;;;6.05;100.00
20043;BME280;10182;52.896;6.496;2023-02-28T13:27:40;103018.78;;;6.00;100.00
20043;BME280;10182;52.896;6.496;2023-02-28T13:32:43;103018.78;;;6.01;100.00
20043;BME280;10182;52.896;6.496;2023-02-28T13:37:48;103019.66;;;6.00;100.00
20043;BME280;10182;52.896;6.496;2023-02-28T13:42:52;103020.59;;;6.07;100.00
20043;BME280;10182;52.896;6.496;2023-02-28T13:47:59;103017.75;;;5.87;100.00
20043;BME280;10182;52.896;6.496;2023-02-28T13:58:50;103015.25;;;5.98;100.00
20043;BME280;10182;52.896;6.496;2023-02-28T14:04:19;103009.94;;;5.95;100.00
20043;BME280;10182;52.896;6.496;2023-02-28T14:09:31;103013.56;;;6.06;100.00
20043;BME280;10182;52.896;6.496;2023-02-28T14:14:55;103008.31;;;6.07;100.00
20043;BME280;10182;52.896;6.496;2023-02-28T14:19:58;102997.78;;;6.07;100.00
20043;BME280;10182;52.896;6.496;2023-02-28T14:25:09;102997.66;;;5.97;100.00
20043;BME280;10182;52.896;6.496;2023-02-28T14:30:29;103005.59;;;5.98;100.00
20043;BME280;10182;52.896;6.496;2023-02-28T14:35:54;103011.66;;;5.89;100.00
20043;BME280;10182;52.896;6.496;2023-02-28T14:41:03;103018.59;;;5.81;100.00
20043;BME280;10182;52.896;6.496;2023-02-28T14:46:10;103012.28;;;5.64;100.00
20043;BME280;10182;52.896;6.496;2023-02-28T14:51:19;103013.22;;;5.72;100.00
20043;BME280;10182;52.896;6.496;2023-02-28T14:56:35;103007.97;;;5.70;100.00
20043;BME280;10182;52.896;6.496;2023-02-28T15:01:38;103001.84;;;5.73;100.00
20043;BME280;10182;52.896;6.496;2023-02-28T15:06:42;103004.50;;;5.76;100.00
20043;BME280;10182;52.896;6.496;2023-02-28T15:11:48;103005.38;;;5.78;100.00
20043;BME280;10182;52.896;6.496;2023-02-28T15:16:55;102989.59;;;5.76;100.00
20043;BME280;10182;52.896;6.496;2023-02-28T15:22:04;102986.94;;;5.73;100.00
20043;BME280;10182;52.896;6.496;2023-02-28T15:27:13;102985.13;;;5.66;100.00
20043;BME280;10182;52.896;6.496;2023-02-28T15:32:25;102985.13;;;5.63;100.00
20043;BME280;10182;52.896;6.496;2023-02-28T15:37:33;102990.41;;;5.68;100.00
20043;BME280;10182;52.896;6.496;2023-02-28T15:42:40;102985.91;;;5.56;100.00
20043;BME280;10182;52.896;6.496;2023-02-28T15:47:45;102995.47;;;5.51;100.00
20043;BME280;10182;52.896;6.496;2023-02-28T15:52:48;102995.47;;;5.49;100.00
20043;BME280;10182;52.896;6.496;2023-02-28T15:57:53;102998.94;;;5.47;100.00
20043;BME280;10182;52.896;6.496;2023-02-28T16:02:56;102989.19;;;5.35;100.00
20043;BME280;10182;52.896;6.496;2023-02-28T16:08:06;102993.53;;;5.33;100.00
20043;BME280;10182;52.896;6.496;2023-02-28T16:13:14;102990.00;;;5.28;100.00
20043;BME280;10182;52.896;6.496;2023-02-28T16:18:16;102992.53;;;5.20;100.00
20043;BME280;10182;52.896;6.496;2023-02-28T16:23:18;102998.59;;;5.14;100.00
20043;BME280;10182;52.896;6.496;2023-02-28T16:28:25;103003.72;;;5.05;100.00
20043;BME280;10182;52.896;6.496;2023-02-28T16:33:31;103000.13;;;4.97;100.00
20043;BME280;10182;52.896;6.496;2023-02-28T16:38:34;103004.41;;;4.90;100.00
20043;BME280;10182;52.896;6.496;2023-02-28T16:43:40;103010.41;;;4.80;100.00
20043;BME280;10182;52.896;6.496;2023-02-28T16:48:42;103012.00;;;4.68;100.00
20043;BME280;10182;52.896;6.496;2023-02-28T16:53:45;103020.63;;;4.60;100.00
20043;BME280;10182;52.896;6.496;2023-02-28T16:58:49;103021.38;;;4.52;100.00
20043;BME280;10182;52.896;6.496;2023-02-28T17:03:51;103020.19;;;4.32;100.00
20043;BME280;10182;52.896;6.496;2023-02-28T17:08:54;103026.03;;;4.14;100.00
20043;BME280;10182;52.896;6.496;2023-02-28T17:13:57;103027.47;;;3.95;100.00
20043;BME280;10182;52.896;6.496;2023-02-28T17:19:02;103030.63;;;3.75;100.00
20043;BME280;10182;52.896;6.496;2023-02-28T17:24:06;103037.22;;;3.53;100.00
20043;BME280;10182;52.896;6.496;2023-02-28T17:29:15;103030.53;;;3.25;100.00
20043;BME280;10182;52.896;6.496;2023-02-28T17:34:17;103046.69;;;3.03;100.00
20043;BME280;10182;52.896;6.496;2023-02-28T17:39:20;103043.78;;;2.91;100.00
20043;BME280;10182;52.896;6.496;2023-02-28T17:44:27;103050.38;;;2.72;100.00
20043;BME280;10182;52.896;6.496;2023-02-28T17:49:29;103050.91;;;2.57;100.00
20043;BME280;10182;52.896;6.496;2023-02-28T17:54:31;103060.06;;;2.40;100.00
20043;BME280;10182;52.896;6.496;2023-02-28T17:59:34;103063.25;;;2.28;100.00
20043;BME280;10182;52.896;6.496;2023-02-28T18:04:36;103059.66;;;2.24;100.00
20043;BME280;10182;52.896;6.496;2023-02-28T18:09:38;103066.44;;;2.16;100.00
20043;BME280;10182;52.896;6.496;2023-02-28T18:14:44;103062.59;;;2.01;100.00
20043;BME280;10182;52.896;6.496;2023-02-28T18:19:48;103064.91;;;1.89;100.00
20043;BME280;10182;52.896;6.496;2023-02-28T18:24:52;103065.66;;;1.85;100.00
20043;BME280;10182;52.896;6.496;2023-02-28T18:29:55;103066.44;;;1.81;100.00
20043;BME280;10182;52.896;6.496;2023-02-28T18:34:57;103067.03;;;1.72;100.00
20043;BME280;10182;52.896;6.496;2023-02-28T18:39:59;103065.19;;;1.68;100.00
20043;BME280;10182;52.896;6.496;2023-02-28T18:45:02;103063.47;;;1.68;100.00
20043;BME280;10182;52.896;6.496;2023-02-28T18:50:05;103058.19;;;1.65;100.00
20043;BME280;10182;52.896;6.496;2023-02-28T18:55:09;103056.25;;;1.60;100.00
20043;BME280;10182;52.896;6.496;2023-02-28T19:00:17;103065.59;;;1.51;100.00
20043;BME280;10182;52.896;6.496;2023-02-28T19:05:22;103064.53;;;1.45;100.00
20043;BME280;10182;52.896;6.496;2023-02-28T19:10:24;103058.22;;;1.37;100.00
20043;BME280;10182;52.896;6.496;2023-02-28T19:15:29;103072.59;;;1.21;100.00
20043;BME280;10182;52.896;6.496;2023-02-28T19:20:30;103075.34;;;0.96;100.00
20043;BME280;10182;52.896;6.496;2023-02-28T19:25:32;103075.13;;;0.90;100.00
20043;BME280;10182;52.896;6.496;2023-02-28T19:30:35;103080.97;;;0.81;100.00
20043;BME280;10182;52.896;6.496;2023-02-28T19:35:39;103084.41;;;0.80;100.00
20043;BME280;10182;52.896;6.496;2023-02-28T19:40:40;103094.97;;;0.56;100.00
20043;BME280;10182;52.896;6.496;2023-02-28T19:45:44;103087.41;;;0.38;100.00
20043;BME280;10182;52.896;6.496;2023-02-28T19:50:46;103095.44;;;0.44;100.00
20043;BME280;10182;52.896;6.496;2023-02-28T19:55:48;103101.44;;;0.42;100.00
20043;BME280;10182;52.896;6.496;2023-02-28T20:00:53;103096.88;;;0.35;100.00
20043;BME280;10182;52.896;6.496;2023-02-28T20:05:59;103097.44;;;0.26;100.00
20043;BME280;10182;52.896;6.496;2023-02-28T20:11:02;103099.13;;;0.24;100.00
20043;BME280;10182;52.896;6.496;2023-02-28T20:16:07;103094.59;;;0.18;100.00
20043;BME280;10182;52.896;6.496;2023-02-28T20:21:10;103098.88;;;0.17;100.00
20043;BME280;10182;52.896;6.496;2023-02-28T20:26:13;103101.53;;;0.19;100.00
20043;BME280;10182;52.896;6.496;2023-02-28T20:31:19;103106.66;;;0.16;100.00
20043;BME280;10182;52.896;6.496;2023-02-28T20:36:21;103104.69;;;0.09;100.00
20043;BME280;10182;52.896;6.496;2023-02-28T20:41:23;103108.84;;;0.04;100.00
20043;BME280;10182;52.896;6.496;2023-02-28T20:46:27;103113.91;;;-0.01;100.00
20043;BME280;10182;52.896;6.496;2023-02-28T20:51:30;103108.38;;;-0.10;100.00
20043;BME280;10182;52.896;6.496;2023-02-28T20:56:41;103110.16;;;-0.09;100.00
20043;BME280;10182;52.896;6.496;2023-02-28T21:01:44;103116.22;;;-0.09;100.00
20043;BME280;10182;52.896;6.496;2023-02-28T21:06:46;103109.25;;;-0.10;100.00
20043;BME280;10182;52.896;6.496;2023-02-28T21:11:52;103114.44;;;-0.10;100.00
20043;BME280;10182;52.896;6.496;2023-02-28T21:16:56;103122.31;;;-0.08;100.00
20043;BME280;10182;52.896;6.496;2023-02-28T21:21:58;103119.78;;;-0.07;100.00
20043;BME280;10182;52.896;6.496;2023-02-28T21:26:59;103122.59;;;-0.01;100.00
20043;BME280;10182;52.896;6.496;2023-02-28T21:32:03;103124.53;;;0.05;100.00
20043;BME280;10182;52.896;6.496;2023-02-28T21:37:12;103114.78;;;-0.01;100.00
20043;BME280;10182;52.896;6.496;2023-02-28T21:42:14;103118.63;;;-0.15;100.00
20043;BME280;10182;52.896;6.496;2023-02-28T21:47:17;103133.22;;;-0.20;100.00
20043;BME280;10182;52.896;6.496;2023-02-28T21:52:19;103125.94;;;-0.29;100.00
20043;BME280;10182;52.896;6.496;2023-02-28T21:57:21;103127.94;;;-0.46;100.00
20043;BME280;10182;52.896;6.496;2023-02-28T22:02:24;103125.94;;;-0.76;100.00
20043;BME280;10182;52.896;6.496;2023-02-28T22:07:26;103129.56;;;-0.72;100.00
20043;BME280;10182;52.896;6.496;2023-02-28T22:12:28;103124.47;;;-0.69;100.00
20043;BME280;10182;52.896;6.496;2023-02-28T22:17:32;103127.88;;;-0.70;100.00
20043;BME280;10182;52.896;6.496;2023-02-28T22:22:35;103126.19;;;-0.70;100.00
20043;BME280;10182;52.896;6.496;2023-02-28T22:27:40;103135.75;;;-0.69;100.00
20043;BME280;10182;52.896;6.496;2023-02-28T22:32:43;103138.34;;;-0.69;100.00
20043;BME280;10182;52.896;6.496;2023-02-28T22:37:46;103146.00;;;-0.73;100.00
20043;BME280;10182;52.896;6.496;2023-02-28T22:42:48;103136.00;;;-0.85;100.00
20043;BME280;10182;52.896;6.496;2023-02-28T22:47:51;103146.28;;;-0.88;100.00
20043;BME280;10182;52.896;6.496;2023-02-28T22:52:53;103143.25;;;-0.99;100.00
20043;BME280;10182;52.896;6.496;2023-02-28T22:57:55;103148.41;;;-1.00;100.00
20043;BME280;10182;52.896;6.496;2023-02-28T23:02:58;103147.44;;;-1.03;100.00
20043;BME280;10182;52.896;6.496;2023-02-28T23:08:00;103149.81;;;-1.09;100.00
20043;BME280;10182;52.896;6.496;2023-02-28T23:13:02;103155.84;;;-1.10;100.00
20043;BME280;10182;52.896;6.496;2023-02-28T23:18:05;103158.28;;;-1.14;100.00
20043;BME280;10182;52.896;6.496;2023-02-28T23:23:07;103159.03;;;-1.17;100.00
20043;BME280;10182;52.896;6.496;2023-02-28T23:28:10;103152.03;;;-1.18;100.00
20043;BME280;10182;52.896;6.496;2023-02-28T23:33:14;103151.94;;;-1.21;100.00
20043;BME280;10182;52.896;6.496;2023-02-28T23:38:16;103143.94;;;-1.26;100.00
20043;BME280;10182;52.896;6.496;2023-02-28T23:43:18;103147.31;;;-1.28;100.00
20043;BME280;10182;52.896;6.496;2023-02-28T23:48:21;103146.28;;;-1.32;100.00
20043;BME280;10182;52.896;6.496;2023-02-28T23:53:23;103143.41;;;-1.38;100.00
20043;BME280;10182;52.896;6.496;2023-02-28T23:58:27;103148.50;;;-1.41;100.00
